sensor_id;sensor_type;location;lat;lon;timestamp;P1;durP1;ratioP1;P2;durP2;ratioP2
12900;SDS011;6518;50.930;5.344;2023-09-19T00:01:33;11.27;;;2.60;;
12900;SDS011;6518;50.930;5.344;2023-09-19T00:04:01;9.25;;;2.47;;
12900;SDS011;6518;50.930;5.344;2023-09-19T00:06:28;10.45;;;2.38;;
12900;SDS011;6518;50.930;5.344;2023-09-19T00:08:56;11.43;;;2.45;;
12900;SDS011;6518;50.930;5.344;2023-09-19T00:11:25;7.95;;;2.13;;
12900;SDS011;6518;50.930;5.344;2023-09-19T00:13:53;11.18;;;2.70;;
12900;SDS011;6518;50.930;5.344;2023-09-19T00:16:20;10.65;;;2.53;;
12900;SDS011;6518;50.930;5.344;2023-09-19T00:18:48;17.02;;;2.92;;
12900;SDS011;6518;50.930;5.344;2023-09-19T00:21:16;8.65;;;2.60;;
12900;SDS011;6518;50.930;5.344;2023-09-19T00:23:44;8.40;;;2.33;;
12900;SDS011;6518;50.930;5.344;2023-09-19T00:26:11;9.00;;;2.30;;
12900;SDS011;6518;50.930;5.344;2023-09-19T00:28:39;7.15;;;2.10;;
12900;SDS011;6518;50.930;5.344;2023-09-19T00:31:07;9.68;;;2.78;;
12900;SDS011;6518;50.930;5.344;2023-09-19T00:33:34;10.35;;;2.50;;
12900;SDS011;6518;50.930;5.344;2023-09-19T00:36:02;12.05;;;3.00;;
12900;SDS011;6518;50.930;5.344;2023-09-19T00:38:32;13.30;;;2.72;;
12900;SDS011;6518;50.930;5.344;2023-09-19T00:40:59;7.32;;;2.40;;
12900;SDS011;6518;50.930;5.344;2023-09-19T00:43:26;7.05;;;2.28;;
12900;SDS011;6518;50.930;5.344;2023-09-19T00:45:54;8.55;;;2.30;;
12900;SDS011;6518;50.930;5.344;2023-09-19T00:48:23;6.70;;;2.25;;
12900;SDS011;6518;50.930;5.344;2023-09-19T00:50:53;8.88;;;2.45;;
12900;SDS011;6518;50.930;5.344;2023-09-19T00:53:21;11.70;;;2.47;;
12900;SDS011;6518;50.930;5.344;2023-09-19T00:55:53;10.15;;;2.53;;
12900;SDS011;6518;50.930;5.344;2023-09-19T00:58:21;10.52;;;2.22;;
12900;SDS011;6518;50.930;5.344;2023-09-19T01:00:48;6.07;;;2.20;;
12900;SDS011;6518;50.930;5.344;2023-09-19T01:03:16;7.53;;;2.40;;
12900;SDS011;6518;50.930;5.344;2023-09-19T01:05:43;10.35;;;2.60;;
12900;SDS011;6518;50.930;5.344;2023-09-19T01:08:10;7.35;;;2.00;;
12900;SDS011;6518;50.930;5.344;2023-09-19T01:10:37;8.75;;;2.30;;
12900;SDS011;6518;50.930;5.344;2023-09-19T01:13:13;8.93;;;2.10;;
12900;SDS011;6518;50.930;5.344;2023-09-19T01:15:49;9.30;;;2.55;;
12900;SDS011;6518;50.930;5.344;2023-09-19T01:18:27;9.02;;;2.30;;
12900;SDS011;6518;50.930;5.344;2023-09-19T01:21:04;10.15;;;2.28;;
12900;SDS011;6518;50.930;5.344;2023-09-19T01:23:39;7.63;;;2.00;;
12900;SDS011;6518;50.930;5.344;2023-09-19T01:26:26;7.30;;;2.47;;
12900;SDS011;6518;50.930;5.344;2023-09-19T01:29:16;7.47;;;2.08;;
12900;SDS011;6518;50.930;5.344;2023-09-19T01:31:59;9.10;;;2.60;;
12900;SDS011;6518;50.930;5.344;2023-09-19T01:34:43;10.20;;;2.50;;
12900;SDS011;6518;50.930;5.344;2023-09-19T01:37:12;13.32;;;2.38;;
12900;SDS011;6518;50.930;5.344;2023-09-19T01:39:43;5.93;;;1.98;;
12900;SDS011;6518;50.930;5.344;2023-09-19T01:42:15;9.07;;;2.35;;
12900;SDS011;6518;50.930;5.344;2023-09-19T01:44:51;7.20;;;2.10;;
12900;SDS011;6518;50.930;5.344;2023-09-19T01:47:28;9.07;;;2.17;;
12900;SDS011;6518;50.930;5.344;2023-09-19T01:50:01;11.88;;;2.83;;
12900;SDS011;6518;50.930;5.344;2023-09-19T01:52:38;9.57;;;2.42;;
12900;SDS011;6518;50.930;5.344;2023-09-19T01:55:13;11.07;;;2.25;;
12900;SDS011;6518;50.930;5.344;2023-09-19T01:57:47;8.20;;;2.28;;
12900;SDS011;6518;50.930;5.344;2023-09-19T02:00:18;8.95;;;2.42;;
12900;SDS011;6518;50.930;5.344;2023-09-19T02:02:50;11.20;;;2.50;;
12900;SDS011;6518;50.930;5.344;2023-09-19T02:05:24;9.23;;;2.55;;
12900;SDS011;6518;50.930;5.344;2023-09-19T02:07:52;12.32;;;2.53;;
12900;SDS011;6518;50.930;5.344;2023-09-19T02:10:20;10.00;;;2.60;;
12900;SDS011;6518;50.930;5.344;2023-09-19T02:12:47;9.68;;;2.78;;
12900;SDS011;6518;50.930;5.344;2023-09-19T02:15:16;8.18;;;2.33;;
12900;SDS011;6518;50.930;5.344;2023-09-19T02:17:43;11.13;;;2.53;;
12900;SDS011;6518;50.930;5.344;2023-09-19T02:20:12;8.40;;;2.50;;
12900;SDS011;6518;50.930;5.344;2023-09-19T02:22:40;13.27;;;2.97;;
12900;SDS011;6518;50.930;5.344;2023-09-19T02:25:07;9.38;;;2.70;;
12900;SDS011;6518;50.930;5.344;2023-09-19T02:27:34;9.05;;;2.60;;
12900;SDS011;6518;50.930;5.344;2023-09-19T02:30:03;9.95;;;2.97;;
12900;SDS011;6518;50.930;5.344;2023-09-19T02:32:31;8.07;;;2.30;;
12900;SDS011;6518;50.930;5.344;2023-09-19T02:35:01;7.82;;;2.10;;
12900;SDS011;6518;50.930;5.344;2023-09-19T02:37:30;11.93;;;2.63;;
12900;SDS011;6518;50.930;5.344;2023-09-19T02:39:57;12.75;;;2.80;;
12900;SDS011;6518;50.930;5.344;2023-09-19T02:42:24;10.32;;;2.65;;
12900;SDS011;6518;50.930;5.344;2023-09-19T02:44:51;7.95;;;2.55;;
12900;SDS011;6518;50.930;5.344;2023-09-19T02:47:18;12.48;;;2.42;;
12900;SDS011;6518;50.930;5.344;2023-09-19T02:49:45;9.98;;;3.22;;
12900;SDS011;6518;50.930;5.344;2023-09-19T02:52:12;10.90;;;2.92;;
12900;SDS011;6518;50.930;5.344;2023-09-19T02:54:41;11.85;;;3.15;;
12900;SDS011;6518;50.930;5.344;2023-09-19T02:57:10;11.43;;;2.47;;
12900;SDS011;6518;50.930;5.344;2023-09-19T02:59:39;7.18;;;2.25;;
12900;SDS011;6518;50.930;5.344;2023-09-19T03:02:07;9.05;;;2.58;;
12900;SDS011;6518;50.930;5.344;2023-09-19T03:04:34;7.35;;;2.25;;
12900;SDS011;6518;50.930;5.344;2023-09-19T03:07:01;8.93;;;2.50;;
12900;SDS011;6518;50.930;5.344;2023-09-19T03:09:29;7.93;;;2.50;;
12900;SDS011;6518;50.930;5.344;2023-09-19T03:11:57;11.55;;;2.65;;
12900;SDS011;6518;50.930;5.344;2023-09-19T03:14:25;12.18;;;2.88;;
12900;SDS011;6518;50.930;5.344;2023-09-19T03:16:55;12.20;;;2.67;;
12900;SDS011;6518;50.930;5.344;2023-09-19T03:19:22;7.03;;;2.95;;
12900;SDS011;6518;50.930;5.344;2023-09-19T03:21:51;12.45;;;2.80;;
12900;SDS011;6518;50.930;5.344;2023-09-19T03:24:18;15.43;;;2.75;;
12900;SDS011;6518;50.930;5.344;2023-09-19T03:26:45;10.48;;;2.28;;
12900;SDS011;6518;50.930;5.344;2023-09-19T03:29:14;9.70;;;2.50;;
12900;SDS011;6518;50.930;5.344;2023-09-19T03:31:42;12.68;;;3.70;;
12900;SDS011;6518;50.930;5.344;2023-09-19T03:34:09;11.45;;;4.65;;
12900;SDS011;6518;50.930;5.344;2023-09-19T03:36:36;8.98;;;2.47;;
12900;SDS011;6518;50.930;5.344;2023-09-19T03:39:03;11.38;;;2.75;;
12900;SDS011;6518;50.930;5.344;2023-09-19T03:41:30;10.25;;;2.67;;
12900;SDS011;6518;50.930;5.344;2023-09-19T03:43:58;9.55;;;2.65;;
12900;SDS011;6518;50.930;5.344;2023-09-19T03:46:26;7.93;;;2.65;;
12900;SDS011;6518;50.930;5.344;2023-09-19T03:48:54;12.75;;;2.65;;
12900;SDS011;6518;50.930;5.344;2023-09-19T03:51:21;8.55;;;2.33;;
12900;SDS011;6518;50.930;5.344;2023-09-19T03:53:48;7.47;;;2.40;;
12900;SDS011;6518;50.930;5.344;2023-09-19T03:56:15;9.70;;;2.90;;
12900;SDS011;6518;50.930;5.344;2023-09-19T03:58:42;11.07;;;2.60;;
12900;SDS011;6518;50.930;5.344;2023-09-19T04:01:09;10.07;;;2.50;;
12900;SDS011;6518;50.930;5.344;2023-09-19T04:03:39;8.50;;;2.90;;
12900;SDS011;6518;50.930;5.344;2023-09-19T04:06:12;12.27;;;2.92;;
12900;SDS011;6518;50.930;5.344;2023-09-19T04:08:38;17.15;;;3.08;;
12900;SDS011;6518;50.930;5.344;2023-09-19T04:11:05;11.35;;;2.78;;
12900;SDS011;6518;50.930;5.344;2023-09-19T04:13:33;8.77;;;2.38;;
12900;SDS011;6518;50.930;5.344;2023-09-19T04:15:59;10.68;;;2.40;;
12900;SDS011;6518;50.930;5.344;2023-09-19T04:18:27;9.65;;;2.60;;
12900;SDS011;6518;50.930;5.344;2023-09-19T04:20:57;7.47;;;2.47;;
12900;SDS011;6518;50.930;5.344;2023-09-19T04:23:24;8.57;;;2.47;;
12900;SDS011;6518;50.930;5.344;2023-09-19T04:25:53;9.13;;;2.53;;
12900;SDS011;6518;50.930;5.344;2023-09-19T04:28:20;6.97;;;2.17;;
12900;SDS011;6518;50.930;5.344;2023-09-19T04:30:47;11.57;;;2.22;;
12900;SDS011;6518;50.930;5.344;2023-09-19T04:33:14;9.93;;;2.42;;
12900;SDS011;6518;50.930;5.344;2023-09-19T04:35:41;6.93;;;2.38;;
12900;SDS011;6518;50.930;5.344;2023-09-19T04:38:10;10.50;;;2.63;;
12900;SDS011;6518;50.930;5.344;2023-09-19T04:40:39;11.25;;;2.40;;
12900;SDS011;6518;50.930;5.344;2023-09-19T04:43:06;9.43;;;2.70;;
12900;SDS011;6518;50.930;5.344;2023-09-19T04:45:32;10.20;;;2.30;;
12900;SDS011;6518;50.930;5.344;2023-09-19T04:47:59;7.95;;;2.55;;
12900;SDS011;6518;50.930;5.344;2023-09-19T04:50:27;11.70;;;2.80;;
12900;SDS011;6518;50.930;5.344;2023-09-19T04:52:54;11.98;;;2.67;;
12900;SDS011;6518;50.930;5.344;2023-09-19T04:55:22;10.90;;;3.33;;
12900;SDS011;6518;50.930;5.344;2023-09-19T04:57:50;11.43;;;3.10;;
12900;SDS011;6518;50.930;5.344;2023-09-19T05:00:18;9.63;;;2.97;;
12900;SDS011;6518;50.930;5.344;2023-09-19T05:02:49;11.02;;;2.67;;
12900;SDS011;6518;50.930;5.344;2023-09-19T05:05:17;11.88;;;2.60;;
12900;SDS011;6518;50.930;5.344;2023-09-19T05:07:45;7.05;;;2.55;;
12900;SDS011;6518;50.930;5.344;2023-09-19T05:10:12;9.98;;;2.83;;
12900;SDS011;6518;50.930;5.344;2023-09-19T05:12:42;10.15;;;2.92;;
12900;SDS011;6518;50.930;5.344;2023-09-19T05:15:11;13.65;;;2.90;;
12900;SDS011;6518;50.930;5.344;2023-09-19T05:17:42;11.68;;;3.03;;
12900;SDS011;6518;50.930;5.344;2023-09-19T05:20:14;9.15;;;2.38;;
12900;SDS011;6518;50.930;5.344;2023-09-19T05:22:49;12.13;;;2.40;;
12900;SDS011;6518;50.930;5.344;2023-09-19T05:25:16;14.88;;;3.20;;
12900;SDS011;6518;50.930;5.344;2023-09-19T05:27:45;8.95;;;2.55;;
12900;SDS011;6518;50.930;5.344;2023-09-19T05:30:12;7.47;;;2.42;;
12900;SDS011;6518;50.930;5.344;2023-09-19T05:32:41;11.27;;;2.90;;
12900;SDS011;6518;50.930;5.344;2023-09-19T05:35:09;13.95;;;2.78;;
12900;SDS011;6518;50.930;5.344;2023-09-19T05:37:38;10.02;;;2.53;;
12900;SDS011;6518;50.930;5.344;2023-09-19T05:40:05;12.65;;;2.38;;
12900;SDS011;6518;50.930;5.344;2023-09-19T05:42:35;12.20;;;2.33;;
12900;SDS011;6518;50.930;5.344;2023-09-19T05:45:05;14.52;;;2.90;;
12900;SDS011;6518;50.930;5.344;2023-09-19T05:47:32;13.40;;;2.35;;
12900;SDS011;6518;50.930;5.344;2023-09-19T05:49:59;7.88;;;1.85;;
12900;SDS011;6518;50.930;5.344;2023-09-19T05:52:26;12.02;;;2.65;;
12900;SDS011;6518;50.930;5.344;2023-09-19T05:54:53;11.57;;;2.60;;
12900;SDS011;6518;50.930;5.344;2023-09-19T05:57:21;13.65;;;3.28;;
12900;SDS011;6518;50.930;5.344;2023-09-19T05:59:50;9.95;;;2.47;;
12900;SDS011;6518;50.930;5.344;2023-09-19T06:02:18;15.05;;;3.58;;
12900;SDS011;6518;50.930;5.344;2023-09-19T06:04:45;11.48;;;2.97;;
12900;SDS011;6518;50.930;5.344;2023-09-19T06:07:12;14.18;;;2.90;;
12900;SDS011;6518;50.930;5.344;2023-09-19T06:09:40;13.15;;;3.00;;
12900;SDS011;6518;50.930;5.344;2023-09-19T06:12:07;12.85;;;2.50;;
12900;SDS011;6518;50.930;5.344;2023-09-19T06:14:34;13.55;;;3.08;;
12900;SDS011;6518;50.930;5.344;2023-09-19T06:17:01;13.07;;;3.08;;
12900;SDS011;6518;50.930;5.344;2023-09-19T06:19:29;11.10;;;2.90;;
12900;SDS011;6518;50.930;5.344;2023-09-19T06:21:58;9.68;;;2.85;;
12900;SDS011;6518;50.930;5.344;2023-09-19T06:24:25;6.65;;;2.53;;
12900;SDS011;6518;50.930;5.344;2023-09-19T06:26:53;9.00;;;2.65;;
12900;SDS011;6518;50.930;5.344;2023-09-19T06:29:20;10.52;;;2.75;;
12900;SDS011;6518;50.930;5.344;2023-09-19T06:31:48;12.00;;;3.00;;
12900;SDS011;6518;50.930;5.344;2023-09-19T06:34:16;10.50;;;2.78;;
12900;SDS011;6518;50.930;5.344;2023-09-19T06:36:44;13.10;;;3.17;;
12900;SDS011;6518;50.930;5.344;2023-09-19T06:39:11;6.70;;;2.65;;
12900;SDS011;6518;50.930;5.344;2023-09-19T06:41:38;6.65;;;2.53;;
12900;SDS011;6518;50.930;5.344;2023-09-19T06:44:06;18.33;;;4.05;;
12900;SDS011;6518;50.930;5.344;2023-09-19T06:46:34;10.68;;;2.70;;
12900;SDS011;6518;50.930;5.344;2023-09-19T06:49:04;16.38;;;3.53;;
12900;SDS011;6518;50.930;5.344;2023-09-19T06:51:31;10.07;;;3.15;;
12900;SDS011;6518;50.930;5.344;2023-09-19T06:54:00;10.45;;;3.50;;
12900;SDS011;6518;50.930;5.344;2023-09-19T06:56:30;11.43;;;3.17;;
12900;SDS011;6518;50.930;5.344;2023-09-19T06:58:58;10.90;;;3.05;;
12900;SDS011;6518;50.930;5.344;2023-09-19T07:01:25;12.98;;;3.15;;
12900;SDS011;6518;50.930;5.344;2023-09-19T07:03:52;10.20;;;2.83;;
12900;SDS011;6518;50.930;5.344;2023-09-19T07:06:22;11.10;;;3.10;;
12900;SDS011;6518;50.930;5.344;2023-09-19T07:08:50;12.98;;;3.75;;
12900;SDS011;6518;50.930;5.344;2023-09-19T07:11:19;11.27;;;2.78;;
12900;SDS011;6518;50.930;5.344;2023-09-19T07:13:46;11.30;;;2.75;;
12900;SDS011;6518;50.930;5.344;2023-09-19T07:16:13;10.55;;;2.90;;
12900;SDS011;6518;50.930;5.344;2023-09-19T07:18:52;10.88;;;2.35;;
12900;SDS011;6518;50.930;5.344;2023-09-19T07:21:20;6.55;;;2.10;;
12900;SDS011;6518;50.930;5.344;2023-09-19T07:23:47;10.68;;;2.38;;
12900;SDS011;6518;50.930;5.344;2023-09-19T07:26:14;11.88;;;2.60;;
12900;SDS011;6518;50.930;5.344;2023-09-19T07:28:43;12.23;;;2.95;;
12900;SDS011;6518;50.930;5.344;2023-09-19T07:31:10;13.25;;;2.95;;
12900;SDS011;6518;50.930;5.344;2023-09-19T07:33:39;10.68;;;2.80;;
12900;SDS011;6518;50.930;5.344;2023-09-19T07:36:09;13.02;;;2.45;;
12900;SDS011;6518;50.930;5.344;2023-09-19T07:38:38;14.80;;;3.00;;
12900;SDS011;6518;50.930;5.344;2023-09-19T07:41:06;11.43;;;2.95;;
12900;SDS011;6518;50.930;5.344;2023-09-19T07:43:34;7.65;;;2.20;;
12900;SDS011;6518;50.930;5.344;2023-09-19T07:46:04;9.77;;;3.00;;
12900;SDS011;6518;50.930;5.344;2023-09-19T07:48:32;7.63;;;2.10;;
12900;SDS011;6518;50.930;5.344;2023-09-19T07:51:04;6.85;;;2.20;;
12900;SDS011;6518;50.930;5.344;2023-09-19T07:53:32;7.60;;;2.10;;
12900;SDS011;6518;50.930;5.344;2023-09-19T07:56:04;10.15;;;2.03;;
12900;SDS011;6518;50.930;5.344;2023-09-19T07:58:31;8.88;;;2.40;;
12900;SDS011;6518;50.930;5.344;2023-09-19T08:01:05;9.40;;;2.70;;
12900;SDS011;6518;50.930;5.344;2023-09-19T08:03:32;9.07;;;2.85;;
12900;SDS011;6518;50.930;5.344;2023-09-19T08:05:59;9.10;;;2.67;;
12900;SDS011;6518;50.930;5.344;2023-09-19T08:08:26;8.60;;;2.38;;
12900;SDS011;6518;50.930;5.344;2023-09-19T08:10:53;7.60;;;2.15;;
12900;SDS011;6518;50.930;5.344;2023-09-19T08:13:21;5.93;;;2.20;;
12900;SDS011;6518;50.930;5.344;2023-09-19T08:15:48;9.75;;;3.17;;
12900;SDS011;6518;50.930;5.344;2023-09-19T08:18:17;11.38;;;2.30;;
12900;SDS011;6518;50.930;5.344;2023-09-19T08:20:49;10.77;;;2.55;;
12900;SDS011;6518;50.930;5.344;2023-09-19T08:23:16;6.45;;;2.30;;
12900;SDS011;6518;50.930;5.344;2023-09-19T08:25:46;8.65;;;2.70;;
12900;SDS011;6518;50.930;5.344;2023-09-19T08:28:13;10.02;;;2.38;;
12900;SDS011;6518;50.930;5.344;2023-09-19T08:30:44;11.57;;;2.53;;
12900;SDS011;6518;50.930;5.344;2023-09-19T08:33:12;6.18;;;2.30;;
12900;SDS011;6518;50.930;5.344;2023-09-19T08:35:42;9.98;;;2.80;;
12900;SDS011;6518;50.930;5.344;2023-09-19T08:38:10;8.10;;;2.00;;
12900;SDS011;6518;50.930;5.344;2023-09-19T08:40:39;9.65;;;2.40;;
12900;SDS011;6518;50.930;5.344;2023-09-19T08:43:07;11.00;;;2.63;;
12900;SDS011;6518;50.930;5.344;2023-09-19T08:45:35;9.25;;;2.55;;
12900;SDS011;6518;50.930;5.344;2023-09-19T08:48:10;10.45;;;2.53;;
12900;SDS011;6518;50.930;5.344;2023-09-19T08:50:49;12.02;;;2.90;;
12900;SDS011;6518;50.930;5.344;2023-09-19T08:53:26;10.30;;;2.38;;
12900;SDS011;6518;50.930;5.344;2023-09-19T08:55:57;10.05;;;2.45;;
12900;SDS011;6518;50.930;5.344;2023-09-19T08:58:30;8.55;;;2.58;;
12900;SDS011;6518;50.930;5.344;2023-09-19T09:01:06;11.05;;;2.72;;
12900;SDS011;6518;50.930;5.344;2023-09-19T09:03:35;12.10;;;2.60;;
12900;SDS011;6518;50.930;5.344;2023-09-19T09:06:08;11.25;;;2.55;;
12900;SDS011;6518;50.930;5.344;2023-09-19T09:08:38;6.15;;;2.38;;
12900;SDS011;6518;50.930;5.344;2023-09-19T09:11:05;8.85;;;2.97;;
12900;SDS011;6518;50.930;5.344;2023-09-19T09:13:34;9.63;;;2.33;;
12900;SDS011;6518;50.930;5.344;2023-09-19T09:16:01;7.88;;;3.10;;
12900;SDS011;6518;50.930;5.344;2023-09-19T09:18:29;9.40;;;2.65;;
12900;SDS011;6518;50.930;5.344;2023-09-19T09:20:56;11.38;;;2.78;;
12900;SDS011;6518;50.930;5.344;2023-09-19T09:23:29;11.75;;;2.63;;
12900;SDS011;6518;50.930;5.344;2023-09-19T09:25:57;9.88;;;2.78;;
12900;SDS011;6518;50.930;5.344;2023-09-19T09:28:29;9.48;;;2.50;;
12900;SDS011;6518;50.930;5.344;2023-09-19T09:30:58;10.40;;;2.60;;
12900;SDS011;6518;50.930;5.344;2023-09-19T09:33:27;8.10;;;2.67;;
12900;SDS011;6518;50.930;5.344;2023-09-19T09:35:55;11.20;;;2.70;;
12900;SDS011;6518;50.930;5.344;2023-09-19T09:38:27;9.45;;;2.60;;
12900;SDS011;6518;50.930;5.344;2023-09-19T09:40:57;9.60;;;4.63;;
12900;SDS011;6518;50.930;5.344;2023-09-19T09:43:32;11.10;;;4.00;;
12900;SDS011;6518;50.930;5.344;2023-09-19T09:46:10;8.93;;;3.00;;
12900;SDS011;6518;50.930;5.344;2023-09-19T09:49:10;8.35;;;3.13;;
12900;SDS011;6518;50.930;5.344;2023-09-19T09:51:46;10.10;;;3.40;;
12900;SDS011;6518;50.930;5.344;2023-09-19T09:54:26;8.10;;;2.50;;
12900;SDS011;6518;50.930;5.344;2023-09-19T09:57:00;6.93;;;2.63;;
12900;SDS011;6518;50.930;5.344;2023-09-19T09:59:48;12.15;;;3.00;;
12900;SDS011;6518;50.930;5.344;2023-09-19T10:02:18;9.90;;;2.40;;
12900;SDS011;6518;50.930;5.344;2023-09-19T10:04:51;12.25;;;2.75;;
12900;SDS011;6518;50.930;5.344;2023-09-19T10:07:27;10.80;;;3.45;;
12900;SDS011;6518;50.930;5.344;2023-09-19T10:10:05;18.27;;;5.30;;
12900;SDS011;6518;50.930;5.344;2023-09-19T10:12:47;18.38;;;6.18;;
12900;SDS011;6518;50.930;5.344;2023-09-19T10:15:16;17.77;;;7.28;;
12900;SDS011;6518;50.930;5.344;2023-09-19T10:17:45;10.90;;;4.15;;
12900;SDS011;6518;50.930;5.344;2023-09-19T10:20:13;14.23;;;5.00;;
12900;SDS011;6518;50.930;5.344;2023-09-19T10:23:00;13.55;;;4.88;;
12900;SDS011;6518;50.930;5.344;2023-09-19T10:25:36;10.15;;;4.18;;
12900;SDS011;6518;50.930;5.344;2023-09-19T10:28:05;12.27;;;3.03;;
12900;SDS011;6518;50.930;5.344;2023-09-19T10:30:40;11.13;;;3.42;;
12900;SDS011;6518;50.930;5.344;2023-09-19T10:33:10;9.93;;;3.10;;
12900;SDS011;6518;50.930;5.344;2023-09-19T10:35:38;7.90;;;2.92;;
12900;SDS011;6518;50.930;5.344;2023-09-19T10:38:09;9.57;;;2.75;;
12900;SDS011;6518;50.930;5.344;2023-09-19T10:40:38;7.53;;;2.20;;
12900;SDS011;6518;50.930;5.344;2023-09-19T10:43:11;10.73;;;5.10;;
12900;SDS011;6518;50.930;5.344;2023-09-19T10:45:39;13.55;;;4.88;;
12900;SDS011;6518;50.930;5.344;2023-09-19T10:48:09;18.20;;;6.00;;
12900;SDS011;6518;50.930;5.344;2023-09-19T10:50:41;8.40;;;1.98;;
12900;SDS011;6518;50.930;5.344;2023-09-19T10:53:11;7.38;;;2.40;;
12900;SDS011;6518;50.930;5.344;2023-09-19T10:55:41;9.63;;;3.47;;
12900;SDS011;6518;50.930;5.344;2023-09-19T10:58:24;16.42;;;7.03;;
12900;SDS011;6518;50.930;5.344;2023-09-19T11:00:55;14.63;;;5.35;;
12900;SDS011;6518;50.930;5.344;2023-09-19T11:03:27;11.90;;;3.10;;
12900;SDS011;6518;50.930;5.344;2023-09-19T11:06:02;7.28;;;2.25;;
12900;SDS011;6518;50.930;5.344;2023-09-19T11:11:52;12.35;;;5.30;;
12900;SDS011;6518;50.930;5.344;2023-09-19T11:14:30;11.68;;;4.10;;
12900;SDS011;6518;50.930;5.344;2023-09-19T11:20:19;8.68;;;2.10;;
12900;SDS011;6518;50.930;5.344;2023-09-19T11:23:22;4.63;;;1.67;;
12900;SDS011;6518;50.930;5.344;2023-09-19T11:25:52;12.43;;;2.55;;
12900;SDS011;6518;50.930;5.344;2023-09-19T11:28:32;10.60;;;2.72;;
12900;SDS011;6518;50.930;5.344;2023-09-19T11:40:35;7.97;;;3.47;;
12900;SDS011;6518;50.930;5.344;2023-09-19T11:46:07;8.15;;;4.35;;
12900;SDS011;6518;50.930;5.344;2023-09-19T11:48:35;6.82;;;2.42;;
12900;SDS011;6518;50.930;5.344;2023-09-19T11:51:12;4.68;;;2.10;;
12900;SDS011;6518;50.930;5.344;2023-09-19T11:53:55;4.90;;;2.20;;
12900;SDS011;6518;50.930;5.344;2023-09-19T11:56:25;9.65;;;1.70;;
12900;SDS011;6518;50.930;5.344;2023-09-19T11:58:54;5.30;;;1.95;;
12900;SDS011;6518;50.930;5.344;2023-09-19T12:01:24;7.53;;;2.22;;
12900;SDS011;6518;50.930;5.344;2023-09-19T12:03:55;7.45;;;2.08;;
12900;SDS011;6518;50.930;5.344;2023-09-19T12:06:24;15.32;;;4.45;;
12900;SDS011;6518;50.930;5.344;2023-09-19T12:08:54;21.10;;;8.50;;
12900;SDS011;6518;50.930;5.344;2023-09-19T12:11:22;25.20;;;12.13;;
12900;SDS011;6518;50.930;5.344;2023-09-19T12:13:51;25.48;;;10.27;;
12900;SDS011;6518;50.930;5.344;2023-09-19T12:16:25;18.30;;;9.25;;
12900;SDS011;6518;50.930;5.344;2023-09-19T12:18:55;7.53;;;2.88;;
12900;SDS011;6518;50.930;5.344;2023-09-19T12:21:24;10.57;;;4.43;;
12900;SDS011;6518;50.930;5.344;2023-09-19T12:23:59;12.15;;;4.40;;
12900;SDS011;6518;50.930;5.344;2023-09-19T12:26:37;8.57;;;2.80;;
12900;SDS011;6518;50.930;5.344;2023-09-19T12:29:11;17.92;;;7.78;;
12900;SDS011;6518;50.930;5.344;2023-09-19T12:31:48;9.30;;;2.63;;
12900;SDS011;6518;50.930;5.344;2023-09-19T12:34:20;7.55;;;2.50;;
12900;SDS011;6518;50.930;5.344;2023-09-19T12:37:08;5.25;;;2.63;;
12900;SDS011;6518;50.930;5.344;2023-09-19T12:39:46;6.93;;;3.25;;
12900;SDS011;6518;50.930;5.344;2023-09-19T12:42:16;11.02;;;3.88;;
12900;SDS011;6518;50.930;5.344;2023-09-19T12:44:45;22.20;;;11.65;;
12900;SDS011;6518;50.930;5.344;2023-09-19T12:47:18;9.63;;;4.70;;
12900;SDS011;6518;50.930;5.344;2023-09-19T12:52:42;6.72;;;1.40;;
12900;SDS011;6518;50.930;5.344;2023-09-19T12:55:22;4.20;;;1.17;;
12900;SDS011;6518;50.930;5.344;2023-09-19T12:57:56;6.40;;;1.58;;
12900;SDS011;6518;50.930;5.344;2023-09-19T13:00:34;14.88;;;7.43;;
12900;SDS011;6518;50.930;5.344;2023-09-19T13:03:14;14.20;;;6.60;;
12900;SDS011;6518;50.930;5.344;2023-09-19T13:05:48;11.55;;;6.05;;
12900;SDS011;6518;50.930;5.344;2023-09-19T13:08:17;13.32;;;5.28;;
12900;SDS011;6518;50.930;5.344;2023-09-19T13:13:29;5.20;;;2.08;;
12900;SDS011;6518;50.930;5.344;2023-09-19T13:15:56;9.57;;;1.92;;
12900;SDS011;6518;50.930;5.344;2023-09-19T13:18:24;4.93;;;1.90;;
12900;SDS011;6518;50.930;5.344;2023-09-19T13:21:05;3.17;;;1.33;;
12900;SDS011;6518;50.930;5.344;2023-09-19T13:23:35;2.35;;;1.30;;
12900;SDS011;6518;50.930;5.344;2023-09-19T13:26:03;4.60;;;1.00;;
12900;SDS011;6518;50.930;5.344;2023-09-19T13:28:30;6.05;;;1.20;;
12900;SDS011;6518;50.930;5.344;2023-09-19T13:30:57;3.53;;;1.25;;
12900;SDS011;6518;50.930;5.344;2023-09-19T13:33:26;9.80;;;2.53;;
12900;SDS011;6518;50.930;5.344;2023-09-19T13:35:53;4.93;;;1.95;;
12900;SDS011;6518;50.930;5.344;2023-09-19T13:38:23;3.88;;;1.63;;
12900;SDS011;6518;50.930;5.344;2023-09-19T13:40:50;5.25;;;1.35;;
12900;SDS011;6518;50.930;5.344;2023-09-19T13:43:18;7.80;;;2.35;;
12900;SDS011;6518;50.930;5.344;2023-09-19T13:45:47;7.13;;;2.72;;
12900;SDS011;6518;50.930;5.344;2023-09-19T13:48:15;8.80;;;3.22;;
12900;SDS011;6518;50.930;5.344;2023-09-19T13:50:48;5.13;;;2.47;;
12900;SDS011;6518;50.930;5.344;2023-09-19T13:53:16;8.57;;;3.40;;
12900;SDS011;6518;50.930;5.344;2023-09-19T13:55:43;8.63;;;3.13;;
12900;SDS011;6518;50.930;5.344;2023-09-19T13:58:10;5.90;;;1.90;;
12900;SDS011;6518;50.930;5.344;2023-09-19T14:00:37;5.18;;;2.17;;
12900;SDS011;6518;50.930;5.344;2023-09-19T14:03:04;4.43;;;1.75;;
12900;SDS011;6518;50.930;5.344;2023-09-19T14:05:31;4.20;;;1.30;;
12900;SDS011;6518;50.930;5.344;2023-09-19T14:08:00;3.55;;;1.05;;
12900;SDS011;6518;50.930;5.344;2023-09-19T14:10:28;5.60;;;1.35;;
12900;SDS011;6518;50.930;5.344;2023-09-19T14:12:56;6.82;;;1.50;;
12900;SDS011;6518;50.930;5.344;2023-09-19T14:15:24;4.93;;;1.20;;
12900;SDS011;6518;50.930;5.344;2023-09-19T14:17:55;4.82;;;1.27;;
12900;SDS011;6518;50.930;5.344;2023-09-19T14:20:22;3.42;;;1.02;;
12900;SDS011;6518;50.930;5.344;2023-09-19T14:22:49;5.35;;;1.23;;
12900;SDS011;6518;50.930;5.344;2023-09-19T14:25:18;4.82;;;1.30;;
12900;SDS011;6518;50.930;5.344;2023-09-19T14:27:46;4.30;;;1.20;;
12900;SDS011;6518;50.930;5.344;2023-09-19T14:30:13;4.45;;;1.17;;
12900;SDS011;6518;50.930;5.344;2023-09-19T14:32:41;5.05;;;1.30;;
12900;SDS011;6518;50.930;5.344;2023-09-19T14:35:08;3.97;;;1.33;;
12900;SDS011;6518;50.930;5.344;2023-09-19T14:37:35;3.60;;;1.23;;
12900;SDS011;6518;50.930;5.344;2023-09-19T14:40:04;5.07;;;1.45;;
12900;SDS011;6518;50.930;5.344;2023-09-19T14:42:35;4.82;;;1.23;;
12900;SDS011;6518;50.930;5.344;2023-09-19T14:45:05;5.97;;;1.60;;
12900;SDS011;6518;50.930;5.344;2023-09-19T14:47:33;2.17;;;1.10;;
12900;SDS011;6518;50.930;5.344;2023-09-19T14:50:00;5.03;;;1.25;;
12900;SDS011;6518;50.930;5.344;2023-09-19T14:52:31;6.70;;;1.55;;
12900;SDS011;6518;50.930;5.344;2023-09-19T14:54:58;4.63;;;1.35;;
12900;SDS011;6518;50.930;5.344;2023-09-19T14:57:26;6.10;;;1.33;;
12900;SDS011;6518;50.930;5.344;2023-09-19T14:59:56;5.72;;;1.40;;
12900;SDS011;6518;50.930;5.344;2023-09-19T15:02:23;2.63;;;1.15;;
12900;SDS011;6518;50.930;5.344;2023-09-19T15:04:51;4.18;;;1.55;;
12900;SDS011;6518;50.930;5.344;2023-09-19T15:07:18;3.85;;;1.40;;
12900;SDS011;6518;50.930;5.344;2023-09-19T15:09:45;3.15;;;1.27;;
12900;SDS011;6518;50.930;5.344;2023-09-19T15:12:12;3.85;;;1.27;;
12900;SDS011;6518;50.930;5.344;2023-09-19T15:14:40;5.63;;;1.55;;
12900;SDS011;6518;50.930;5.344;2023-09-19T15:17:09;2.72;;;1.08;;
12900;SDS011;6518;50.930;5.344;2023-09-19T15:19:36;4.13;;;1.00;;
12900;SDS011;6518;50.930;5.344;2023-09-19T15:22:04;3.88;;;1.27;;
12900;SDS011;6518;50.930;5.344;2023-09-19T15:24:32;6.15;;;1.30;;
12900;SDS011;6518;50.930;5.344;2023-09-19T15:26:59;3.63;;;1.58;;
12900;SDS011;6518;50.930;5.344;2023-09-19T15:29:26;5.30;;;1.23;;
12900;SDS011;6518;50.930;5.344;2023-09-19T15:31:55;4.05;;;1.30;;
12900;SDS011;6518;50.930;5.344;2023-09-19T15:34:28;3.78;;;1.15;;
12900;SDS011;6518;50.930;5.344;2023-09-19T15:36:55;2.40;;;1.10;;